Time;durP1;ratioP1;P1;durP2;ratioP2;P2;SDS_P1;SDS_P2;PMS_P1;PMS_P2;Temp;Humidity;BMP_temperature;BMP_pressure;BME280_temperature;BME280_humidity;BME280_pressure;Samples;Min_cycle;Max_cycle;Signal;HPM_P1;HPM_P2
2021/01/07 00:00:11;;;;;;;15.98;8.25;;;;;;;3.55;86.35;99720.81;5072439;28;20504;-80
2021/01/07 00:02:37;;;;;;;13.05;7.60;;;;;;;3.57;86.12;99721.59;5072526;28;20094;-74
2021/01/07 00:05:04;;;;;;;14.13;7.55;;;;;;;3.47;86.31;99714.97;5072424;28;20039;-74
2021/01/07 00:07:29;;;;;;;13.95;7.72;;;;;;;3.44;86.50;99722.09;5072273;28;20090;-74
2021/01/07 00:09:55;;;;;;;14.50;7.90;;;;;;;3.24;87.37;99681.63;5073912;28;20032;-74
2021/01/07 00:12:20;;;;;;;14.23;7.97;;;;;;;3.21;86.88;99673.84;5073316;28;20028;-73
2021/01/07 00:14:46;;;;;;;12.95;7.75;;;;;;;3.57;85.94;99721.59;5072204;28;20528;-73
2021/01/07 00:17:11;;;;;;;13.90;7.53;;;;;;;3.53;84.91;99714.75;5055922;28;20029;-74
2021/01/07 00:19:36;;;;;;;12.75;6.88;;;;;;;3.55;85.38;99710.25;5072437;28;20032;-74
2021/01/07 00:22:02;;;;;;;13.13;7.45;;;;;;;3.49;84.97;99695.56;5073633;28;20028;-74
2021/01/07 00:24:27;;;;;;;12.48;7.10;;;;;;;3.42;85.34;99705.47;5073263;28;20059;-74
2021/01/07 00:26:53;;;;;;;13.68;6.72;;;;;;;3.42;84.92;99716.03;5073287;28;20044;-72
2021/01/07 00:29:18;;;;;;;9.48;6.18;;;;;;;3.38;85.25;99705.69;5072981;28;20031;-74
2021/01/07 00:31:43;;;;;;;9.77;5.93;;;;;;;3.45;85.36;99723.81;5055289;28;20056;-73
2021/01/07 00:34:09;;;;;;;12.10;6.60;;;;;;;3.43;84.83;99709.84;5073463;28;20444;-73
2021/01/07 00:36:34;;;;;;;11.00;6.22;;;;;;;3.11;84.98;99671.56;5073089;28;20037;-73
2021/01/07 00:39:00;;;;;;;10.73;6.05;;;;;;;3.54;84.67;99711.19;5071978;28;20039;-74
2021/01/07 00:41:25;;;;;;;9.98;6.45;;;;;;;3.50;84.50;99722.78;5072958;28;20044;-73
2021/01/07 00:43:51;;;;;;;11.18;6.28;;;;;;;3.57;84.37;99743.59;5073079;28;20032;-72
2021/01/07 00:46:17;;;;;;;10.65;6.47;;;;;;;3.29;85.08;99699.00;5071626;28;20028;-72
2021/01/07 00:48:42;;;;;;;10.35;6.43;;;;;;;3.51;84.85;99754.38;5073030;28;20035;-74
2021/01/07 00:51:08;;;;;;;11.45;6.63;;;;;;;3.24;84.51;99708.84;5072310;28;20029;-75
2021/01/07 00:53:35;;;;;;;11.77;6.50;;;;;;;3.22;83.65;99700.13;5072836;28;20378;-74
2021/01/07 00:56:01;;;;;;;10.55;6.18;;;;;;;3.47;85.23;99736.06;5072840;28;20072;-72
2021/01/07 00:58:27;;;;;;;9.43;5.80;;;;;;;3.35;84.30;99718.97;5072854;28;20036;-73
2021/01/07 01:00:53;;;;;;;12.13;5.38;;;;;;;3.08;83.13;99705.94;5073079;28;20035;-73
2021/01/07 01:03:21;;;;;;;7.03;4.00;;;;;;;2.77;84.96;99715.91;5071497;28;20402;-74
2021/01/07 01:05:47;;;;;;;7.88;4.63;;;;;;;2.63;84.81;99695.34;5073031;28;20032;-73
2021/01/07 01:08:13;;;;;;;8.77;4.75;;;;;;;2.95;85.84;99753.88;5071821;28;20036;-73
2021/01/07 01:10:38;;;;;;;7.80;4.28;;;;;;;2.99;85.67;99745.81;5071762;28;20411;-73
2021/01/07 01:13:03;;;;;;;7.72;4.57;;;;;;;3.11;85.55;99752.41;5071608;28;20055;-73
2021/01/07 01:15:29;;;;;;;8.23;4.78;;;;;;;3.00;85.90;99741.41;5071586;28;20044;-73
2021/01/07 01:17:55;;;;;;;9.68;5.45;;;;;;;2.93;86.76;99745.19;5072598;28;20504;-73
2021/01/07 01:20:20;;;;;;;8.38;4.70;;;;;;;2.87;86.42;99730.44;5071423;28;20075;-73
2021/01/07 01:22:45;;;;;;;9.43;4.93;;;;;;;2.54;86.88;99680.75;5072644;28;20537;-73
2021/01/07 01:25:12;;;;;;;8.40;5.03;;;;;;;2.87;88.10;99747.13;5071443;28;20127;-73
2021/01/07 01:27:40;;;;;;;8.35;4.95;;;;;;;2.82;88.31;99742.94;5072374;28;20400;-73
2021/01/07 01:30:07;;;;;;;8.68;5.20;;;;;;;2.75;88.72;99734.41;5072117;28;20047;-71
2021/01/07 01:32:38;;;;;;;8.35;4.85;;;;;;;2.79;88.39;99740.41;5070532;28;20493;-73
2021/01/07 01:35:08;;;;;;;9.23;4.90;;;;;;;2.81;88.98;99754.41;5072841;28;20060;-71
2021/01/07 01:37:35;;;;;;;8.90;5.13;;;;;;;2.72;89.74;99752.97;5071216;28;20029;-73
2021/01/07 01:40:03;;;;;;;9.93;5.22;;;;;;;2.74;88.85;99737.94;5055021;28;20037;-73
2021/01/07 01:42:29;;;;;;;9.00;5.25;;;;;;;2.70;88.60;99714.41;5072237;28;20042;-72
2021/01/07 01:44:54;;;;;;;8.68;5.10;;;;;;;2.58;88.26;99687.59;5072405;28;20028;-73
2021/01/07 01:47:21;;;;;;;8.85;4.95;;;;;;;2.95;87.20;99751.25;5071075;28;20033;-75
2021/01/07 01:49:51;;;;;;;9.23;4.97;;;;;;;3.00;86.96;99747.53;5072585;28;20032;-71
2021/01/07 01:52:18;;;;;;;8.48;5.05;;;;;;;2.93;87.05;99734.66;5071183;28;20024;-72
2021/01/07 01:54:44;;;;;;;10.68;5.18;;;;;;;2.96;86.85;99729.25;5072135;28;20028;-71
2021/01/07 01:57:16;;;;;;;9.60;5.22;;;;;;;2.93;87.55;99734.66;5072166;28;20466;-71
2021/01/07 01:59:43;;;;;;;9.52;5.35;;;;;;;2.85;88.04;99738.41;5072105;28;20568;-72
2021/01/07 02:02:18;;;;;;;9.50;5.35;;;;;;;2.46;88.01;99681.94;5071516;28;20036;-71
2021/01/07 02:04:44;;;;;;;8.18;5.47;;;;;;;2.73;87.63;99722.22;5074569;28;20543;-71
2021/01/07 02:07:19;;;;;;;10.32;5.63;;;;;;;2.69;88.82;99731.97;5074919;28;20036;-71
2021/01/07 02:09:45;;;;;;;8.82;5.20;;;;;;;2.62;89.38;99740.19;5074566;28;20166;-72
2021/01/07 02:12:12;;;;;;;9.95;6.28;;;;;;;2.63;89.54;99737.50;5076059;28;20510;-71
2021/01/07 02:14:41;;;;;;;8.48;5.35;;;;;;;2.62;90.18;99746.31;5075671;28;20059;-72
2021/01/07 02:17:07;;;;;;;10.95;5.72;;;;;;;2.56;90.85;99731.56;5075747;28;20082;-72
2021/01/07 02:19:33;;;;;;;9.65;5.55;;;;;;;2.64;89.95;99736.56;5075481;28;20032;-72
2021/01/07 02:21:59;;;;;;;9.77;6.00;;;;;;;2.69;88.75;99739.88;5057987;28;20039;-72
2021/01/07 02:24:25;;;;;;;10.23;5.68;;;;;;;2.79;88.13;99737.78;5075645;28;20047;-72
2021/01/07 02:26:52;;;;;;;10.07;5.80;;;;;;;2.81;88.04;99746.50;5058194;28;20377;-72
2021/01/07 02:29:17;;;;;;;10.38;5.72;;;;;;;2.65;87.52;99711.94;5058079;28;20037;-71
2021/01/07 02:31:43;;;;;;;9.45;5.57;;;;;;;2.84;86.41;99760.41;5057400;28;20382;-73
2021/01/07 02:34:08;;;;;;;9.20;5.93;;;;;;;2.78;86.17;99751.84;5074490;28;20039;-73
2021/01/07 02:36:35;;;;;;;11.35;6.03;;;;;;;2.83;86.51;99766.59;5073962;28;20078;-73
2021/01/07 02:39:00;;;;;;;10.02;6.28;;;;;;;2.74;86.69;99761.66;5074219;28;20036;-74
2021/01/07 02:41:26;;;;;;;11.18;6.40;;;;;;;2.42;86.35;99706.66;5073721;28;20390;-73
2021/01/07 02:43:51;;;;;;;12.75;6.22;;;;;;;2.73;85.15;99756.44;5057822;28;20397;-74
2021/01/07 02:46:17;;;;;;;10.88;6.25;;;;;;;2.83;85.73;99760.47;5057475;28;20079;-72
2021/01/07 02:48:42;;;;;;;11.82;6.75;;;;;;;2.92;85.88;99764.53;5074899;28;20044;-73
2021/01/07 02:51:08;;;;;;;11.40;6.47;;;;;;;2.85;85.15;99742.81;5057333;28;20032;-73
2021/01/07 02:53:33;;;;;;;11.55;6.45;;;;;;;2.73;84.08;99717.81;5074908;28;20116;-74
2021/01/07 02:55:59;;;;;;;9.77;5.93;;;;;;;3.00;84.09;99757.22;5073929;28;20044;-74
2021/01/07 02:58:24;;;;;;;11.93;6.72;;;;;;;3.02;83.41;99761.50;5074747;28;20036;-77
2021/01/07 03:00:50;;;;;;;10.75;6.55;;;;;;;2.99;82.35;99768.66;5073914;28;20403;-72
2021/01/07 03:03:15;;;;;;;10.55;6.45;;;;;;;2.78;83.86;99731.66;5074999;28;20044;-73
2021/01/07 03:05:40;;;;;;;11.13;7.10;;;;;;;2.79;83.93;99743.91;5074627;28;20086;-74
2021/01/07 03:08:06;;;;;;;13.60;7.18;;;;;;;2.64;83.88;99733.94;5074802;28;20039;-74
2021/01/07 03:10:32;;;;;;;11.70;6.93;;;;;;;2.63;84.08;99737.50;5073538;28;20040;-74
2021/01/07 03:12:57;;;;;;;13.85;7.05;;;;;;;2.85;82.75;99756.84;5074939;28;20043;-74
2021/01/07 03:15:23;;;;;;;12.38;7.22;;;;;;;2.95;81.34;99765.28;5074017;28;20064;-75
2021/01/07 03:17:48;;;;;;;12.57;7.30;;;;;;;3.01;81.80;99774.75;5074521;28;20174;-75
2021/01/07 03:20:14;;;;;;;13.77;7.10;;;;;;;2.85;79.92;99727.03;5074747;28;20485;-75
2021/01/07 03:22:41;;;;;;;10.77;6.32;;;;;;;2.86;78.72;99708.53;5072944;28;20024;-76
2021/01/07 03:25:11;;;;;;;11.45;6.75;;;;;;;2.88;79.20;99719.00;5074478;28;20497;-75
2021/01/07 03:27:37;;;;;;;11.63;7.00;;;;;;;2.97;79.82;99758.16;5074403;28;20028;-75
2021/01/07 03:30:07;;;;;;;11.48;6.88;;;;;;;2.90;80.93;99747.94;5074452;28;20060;-75
2021/01/07 03:32:33;;;;;;;12.70;7.20;;;;;;;3.04;80.46;99769.34;5063995;28;20045;-75
2021/01/07 03:34:59;;;;;;;11.48;6.97;;;;;;;3.08;80.74;99770.94;5054490;28;20037;-75
2021/01/07 03:37:24;;;;;;;14.52;7.63;;;;;;;2.93;79.64;99777.66;5036448;28;20033;-76
2021/01/07 03:39:50;;;;;;;13.35;6.82;;;;;;;2.95;79.97;99775.81;5019669;28;20029;-75
2021/01/07 03:42:16;;;;;;;11.38;6.80;;;;;;;2.87;80.21;99778.72;5036605;28;20049;-75
2021/01/07 03:44:41;;;;;;;11.55;6.82;;;;;;;2.75;79.72;99741.44;5019636;28;20451;-72
2021/01/07 03:47:07;;;;;;;14.07;7.75;;;;;;;2.69;80.71;99731.97;5036459;28;20033;-71
2021/01/07 03:49:32;;;;;;;12.23;6.95;;;;;;;2.97;79.39;99781.03;5035857;28;20402;-73
2021/01/07 03:51:58;;;;;;;12.43;7.07;;;;;;;2.99;79.07;99780.06;5036346;28;20050;-71
2021/01/07 03:54:24;;;;;;;15.13;7.50;;;;;;;2.78;80.23;99776.41;5036264;28;20498;-71
2021/01/07 03:56:49;;;;;;;11.75;7.00;;;;;;;2.77;79.20;99772.06;5019264;28;20048;-71
2021/01/07 03:59:15;;;;;;;13.98;7.85;;;;;;;2.79;80.09;99783.41;5019737;28;20474;-71
2021/01/07 04:01:40;;;;;;;13.98;8.32;;;;;;;2.58;81.65;99766.59;5035722;28;20474;-73
2021/01/07 04:04:05;;;;;;;14.90;8.23;;;;;;;2.60;81.52;99777.06;5035962;28;20035;-73
2021/01/07 04:06:31;;;;;;;13.18;8.00;;;;;;;2.65;80.72;99771.66;5053287;28;20029;-73
2021/01/07 04:08:56;;;;;;;11.68;7.18;;;;;;;2.53;80.53;99779.09;5036027;28;20033;-71
2021/01/07 04:11:22;;;;;;;12.82;8.07;;;;;;;2.45;79.49;99769.72;5053740;28;20044;-72
2021/01/07 04:13:47;;;;;;;14.68;8.27;;;;;;;2.49;81.01;99787.13;5053194;28;20029;-73
2021/01/07 04:16:13;;;;;;;14.30;8.43;;;;;;;2.40;81.36;99761.97;5053467;28;20135;-72
2021/01/07 04:18:38;;;;;;;15.63;9.23;;;;;;;2.44;82.58;99786.44;5053272;28;20032;-72
2021/01/07 04:21:04;;;;;;;14.00;7.90;;;;;;;2.34;81.81;99771.88;5036008;28;20043;-72
2021/01/07 04:23:30;;;;;;;16.33;8.80;;;;;;;2.30;82.62;99777.22;5053053;28;20041;-80
2021/01/07 04:25:55;;;;;;;18.27;9.00;;;;;;;2.39;82.76;99786.56;5053376;28;20037;-71
2021/01/07 04:28:21;;;;;;;15.48;8.77;;;;;;;2.38;82.54;99784.84;5035547;28;20029;-74
2021/01/07 04:30:46;;;;;;;14.50;8.32;;;;;;;2.36;83.27;99780.56;5053065;28;20394;-74
2021/01/07 04:33:12;;;;;;;15.07;8.63;;;;;;;2.35;82.66;99786.75;5046657;28;20044;-75
2021/01/07 04:35:38;;;;;;;16.45;9.10;;;;;;;2.42;82.52;99799.66;5072776;28;20066;-74
2021/01/07 04:38:03;;;;;;;14.45;8.52;;;;;;;2.43;82.04;99797.88;5055621;28;20386;-73
2021/01/07 04:40:29;;;;;;;16.05;8.50;;;;;;;2.38;81.09;99791.91;5072214;28;20037;-74
2021/01/07 04:42:55;;;;;;;14.40;7.90;;;;;;;2.37;81.62;99795.44;5072754;28;20028;-73
2021/01/07 04:45:21;;;;;;;13.65;7.88;;;;;;;2.36;81.24;99796.38;5072209;28;20036;-74
2021/01/07 04:47:48;;;;;;;13.18;7.30;;;;;;;2.25;80.45;99794.94;5072826;28;20375;-74
2021/01/07 04:50:14;;;;;;;14.20;8.48;;;;;;;2.24;81.96;99801.13;5055106;28;20481;-75
2021/01/07 04:52:39;;;;;;;14.50;8.43;;;;;;;2.26;81.04;99799.31;5071471;28;20031;-74
2021/01/07 04:55:06;;;;;;;13.90;7.53;;;;;;;2.03;80.56;99764.13;5071851;28;20090;-75
2021/01/07 04:57:31;;;;;;;14.57;7.43;;;;;;;2.09;80.36;99772.69;5072793;28;20547;-74
2021/01/07 04:59:57;;;;;;;12.63;7.38;;;;;;;2.04;81.48;99774.63;5072527;28;20036;-73
2021/01/07 05:02:23;;;;;;;13.80;7.95;;;;;;;2.08;80.74;99773.59;5071718;28;20397;-72
2021/01/07 05:04:50;;;;;;;14.50;8.05;;;;;;;2.08;80.96;99770.97;5072507;28;20477;-73
2021/01/07 05:07:17;;;;;;;13.32;8.07;;;;;;;2.21;81.55;99813.50;5071712;28;20055;-72
2021/01/07 05:09:43;;;;;;;13.93;8.00;;;;;;;2.14;80.97;99790.97;5072477;28;20090;-72
2021/01/07 05:12:09;;;;;;;13.95;7.78;;;;;;;2.21;80.89;99809.09;5071516;28;20433;-72
2021/01/07 05:14:45;;;;;;;13.25;8.10;;;;;;;2.32;80.61;99821.94;5071344;28;20158;-79
2021/01/07 05:17:12;;;;;;;14.27;8.23;;;;;;;2.26;80.47;99814.22;5054848;28;20101;-74
2021/01/07 05:19:38;;;;;;;13.30;8.02;;;;;;;2.24;81.26;99827.44;5072275;28;20077;-73
2021/01/07 05:22:03;;;;;;;14.00;8.75;;;;;;;2.06;81.45;99833.31;5072880;28;20036;-73
2021/01/07 05:24:30;;;;;;;14.20;8.15;;;;;;;1.98;81.65;99817.75;5072904;28;20039;-73
2021/01/07 05:26:55;;;;;;;13.88;8.13;;;;;;;1.90;81.88;99818.91;5072534;28;20032;-73
2021/01/07 05:29:21;;;;;;;13.38;8.18;;;;;;;1.87;83.05;99834.78;5072547;28;20473;-72
2021/01/07 05:31:52;;;;;;;14.75;8.73;;;;;;;1.71;83.12;99832.63;5068433;28;20053;-75
2021/01/07 05:34:18;;;;;;;15.80;8.90;;;;;;;1.59;83.16;99782.19;5052688;28;20057;-74
2021/01/07 05:36:43;;;;;;;14.80;8.57;;;;;;;1.66;83.39;99821.41;5052039;28;20103;-75
2021/01/07 05:39:09;;;;;;;14.48;8.68;;;;;;;1.48;84.66;99821.97;5038590;28;20044;-75
2021/01/07 05:41:35;;;;;;;16.85;8.68;;;;;;;1.47;84.92;99841.28;5038950;28;20033;-76
2021/01/07 05:44:12;;;;;;;16.05;9.95;;;;;;;1.47;86.05;99830.75;5038178;28;20029;-75
2021/01/07 05:46:37;;;;;;;17.58;9.77;;;;;;;1.41;86.89;99831.78;5039754;28;20083;-79
2021/01/07 05:49:03;;;;;;;16.42;9.63;;;;;;;1.43;87.83;99843.09;5022331;28;20441;-75
2021/01/07 05:51:31;;;;;;;17.25;8.80;;;;;;;1.35;86.86;99825.84;5056510;28;20421;-75
2021/01/07 05:54:00;;;;;;;16.40;8.88;;;;;;;1.58;85.17;99848.84;5038129;28;20119;-74
2021/01/07 05:56:26;;;;;;;15.82;9.05;;;;;;;1.66;84.58;99852.97;5038284;28;20127;-76
2021/01/07 05:58:55;;;;;;;14.75;7.82;;;;;;;1.91;81.73;99845.16;5021496;28;20128;-75
2021/01/07 06:01:23;;;;;;;13.65;7.95;;;;;;;1.97;81.06;99846.75;5056006;28;20111;-73
2021/01/07 06:03:54;;;;;;;14.10;7.32;;;;;;;1.91;80.94;99854.81;5055959;28;20100;-73
2021/01/07 06:06:21;;;;;;;12.85;7.38;;;;;;;1.90;82.24;99858.38;5038624;28;20036;-72
2021/01/07 06:08:55;;;;;;;14.00;7.35;;;;;;;1.87;80.83;99866.34;5021481;28;20072;-74
2021/01/07 06:11:25;;;;;;;14.13;7.60;;;;;;;1.90;81.34;99861.00;5037953;28;20029;-73
2021/01/07 06:13:53;;;;;;;12.73;7.65;;;;;;;2.10;80.09;99863.84;5055391;28;20489;-74
2021/01/07 06:16:24;;;;;;;11.75;7.38;;;;;;;2.05;81.16;99868.41;5038133;28;20429;-74
2021/01/07 06:18:49;;;;;;;12.90;7.32;;;;;;;1.76;80.77;99831.66;5055459;28;20504;-74
2021/01/07 06:21:17;;;;;;;12.80;7.47;;;;;;;1.89;81.26;99885.56;5037822;28;20036;-75
2021/01/07 06:23:45;;;;;;;12.73;8.10;;;;;;;1.95;81.20;99874.88;5055399;28;20497;-72
2021/01/07 06:26:27;;;;;;;13.07;7.38;;;;;;;1.85;81.10;99883.97;5055886;28;20039;-71
2021/01/07 06:28:57;;;;;;;12.43;7.35;;;;;;;1.64;82.16;99873.19;5055620;28;20032;-72
2021/01/07 06:31:36;;;;;;;13.65;8.07;;;;;;;1.64;83.41;99886.31;5055389;28;20029;-74
2021/01/07 06:34:02;;;;;;;13.82;7.40;;;;;;;1.55;83.31;99876.09;5055354;28;20029;-72
2021/01/07 06:36:39;;;;;;;13.73;8.27;;;;;;;1.82;81.81;99894.56;5055660;28;20032;-72
2021/01/07 06:39:06;;;;;;;13.50;8.20;;;;;;;1.80;82.29;99902.50;5055428;28;20052;-69
2021/01/07 06:41:32;;;;;;;14.55;8.00;;;;;;;1.71;83.21;99881.72;5055607;28;20116;-71
2021/01/07 06:43:58;;;;;;;13.10;8.15;;;;;;;1.81;83.33;99901.59;5055363;28;20128;-71
2021/01/07 06:46:41;;;;;;;13.73;8.23;;;;;;;2.08;81.59;99904.28;5055484;28;20367;-71
2021/01/07 06:49:27;;;;;;;11.75;7.20;;;;;;;2.11;80.24;99891.03;5037337;28;20059;-72
2021/01/07 06:51:57;;;;;;;15.73;8.88;;;;;;;2.17;81.80;99912.75;5055428;28;20059;-71
2021/01/07 06:54:45;;;;;;;11.90;7.18;;;;;;;2.10;81.91;99921.75;5055450;28;20394;-72
2021/01/07 06:57:12;;;;;;;13.45;8.30;;;;;;;2.17;81.61;99925.06;5037358;28;20043;-73
2021/01/07 06:59:53;;;;;;;13.82;8.05;;;;;;;1.93;81.51;99881.94;5055047;28;20025;-73
2021/01/07 07:02:19;;;;;;;12.30;7.25;;;;;;;2.08;81.84;99913.03;5055539;28;20036;-73
2021/01/07 07:04:46;;;;;;;14.18;7.78;;;;;;;2.18;81.68;99935.53;5037135;28;20041;-73
2021/01/07 07:07:36;;;;;;;13.20;8.30;;;;;;;2.19;82.52;99937.25;5055045;28;20035;-73
2021/01/07 07:10:17;;;;;;;12.55;7.65;;;;;;;2.41;80.60;99947.09;5036807;28;20037;-73
2021/01/07 07:12:46;;;;;;;12.52;7.63;;;;;;;2.62;78.12;99949.06;5054884;28;20494;-73
2021/01/07 07:15:12;;;;;;;12.48;7.43;;;;;;;2.29;78.00;99906.25;5054729;28;20029;-70
2021/01/07 07:17:43;;;;;;;12.55;7.30;;;;;;;2.44;80.09;99958.41;5037168;28;20454;-70
2021/01/07 07:20:09;;;;;;;12.48;7.47;;;;;;;2.41;80.15;99962.88;5020893;28;20064;-70
2021/01/07 07:22:44;;;;;;;13.05;7.55;;;;;;;2.34;79.52;99930.66;5054708;28;20025;-71
2021/01/07 07:25:11;;;;;;;13.32;7.68;;;;;;;2.15;80.23;99925.09;5054820;28;20060;-70
2021/01/07 07:27:54;;;;;;;12.38;7.65;;;;;;;2.43;79.11;99974.25;5054663;28;20037;-69
2021/01/07 07:30:27;;;;;;;12.30;7.70;;;;;;;2.60;78.22;99979.81;5054646;28;20457;-72
2021/01/07 07:32:53;;;;;;;12.32;7.32;;;;;;;2.76;78.09;99988.97;5059069;28;20048;-70
2021/01/07 07:35:24;;;;;;;13.38;7.78;;;;;;;2.79;77.79;99975.69;5074722;28;20036;-69
2021/01/07 07:37:50;;;;;;;13.23;7.43;;;;;;;2.80;77.68;99977.44;5074074;28;20040;-70
2021/01/07 07:40:36;;;;;;;15.30;8.00;;;;;;;2.74;78.17;99997.84;5073464;28;20040;-70
2021/01/07 07:43:04;;;;;;;14.65;8.38;;;;;;;2.73;79.04;99998.75;5073923;28;20032;-70
2021/01/07 07:45:32;;;;;;;11.18;6.63;;;;;;;2.71;78.29;99998.81;5072877;28;20107;-70
2021/01/07 07:47:58;;;;;;;13.02;7.63;;;;;;;2.76;77.56;99999.50;5074139;28;20040;-70
2021/01/07 07:50:29;;;;;;;12.45;7.85;;;;;;;2.78;78.53;99997.66;5074118;28;20037;-68
2021/01/07 07:53:04;;;;;;;13.82;8.45;;;;;;;2.68;78.89;100013.81;5074098;28;20021;-67
2021/01/07 07:55:37;;;;;;;13.68;8.02;;;;;;;2.67;78.75;99997.16;5074155;28;20036;-69
2021/01/07 07:58:12;;;;;;;12.03;7.63;;;;;;;2.56;78.55;100015.94;5072478;28;20039;-69
2021/01/07 08:00:39;;;;;;;12.02;7.38;;;;;;;2.30;77.71;99971.97;5073474;28;20060;-69
2021/01/07 08:03:10;;;;;;;12.88;7.00;;;;;;;2.49;77.61;100010.91;5073655;28;20097;-68
2021/01/07 08:05:37;;;;;;;12.35;7.88;;;;;;;2.19;78.67;99953.03;5074006;28;20393;-68
2021/01/07 08:08:03;;;;;;;12.52;7.20;;;;;;;2.23;78.49;99956.44;5073717;28;20025;-69
2021/01/07 08:10:28;;;;;;;14.95;7.65;;;;;;;2.35;78.22;99973.63;5073912;28;20032;-68
2021/01/07 08:12:54;;;;;;;11.43;7.07;;;;;;;2.51;78.42;100003.81;5073758;28;20052;-69
2021/01/07 08:15:27;;;;;;;12.63;6.90;;;;;;;2.60;78.56;100014.06;5074009;28;20024;-69
2021/01/07 08:17:52;;;;;;;11.73;7.00;;;;;;;2.64;77.73;99997.28;5072462;28;20393;-69
2021/01/07 08:20:25;;;;;;;12.70;7.40;;;;;;;2.66;78.21;100008.59;5073764;28;20028;-69
2021/01/07 08:22:53;;;;;;;11.77;6.60;;;;;;;2.65;78.24;100004.25;5073347;28;20170;-85
2021/01/07 08:25:32;;;;;;;11.68;6.68;;;;;;;2.65;78.07;100013.94;5073801;28;20169;-68
2021/01/07 08:28:05;;;;;;;11.02;6.35;;;;;;;2.51;78.93;100001.19;5073478;28;20093;-69
2021/01/07 08:30:32;;;;;;;15.88;7.38;;;;;;;2.66;78.22;100020.91;5072322;28;20029;-68
2021/01/07 08:32:59;;;;;;;14.63;7.05;;;;;;;2.64;77.35;100017.47;5059361;28;20052;-69
2021/01/07 08:35:25;;;;;;;15.68;7.43;;;;;;;2.42;78.59;99976.03;5053127;28;20021;-69
2021/01/07 08:37:52;;;;;;;12.05;7.43;;;;;;;2.58;77.99;99992.19;5053537;28;20033;-69
2021/01/07 08:40:21;;;;;;;13.68;7.45;;;;;;;2.58;78.43;99992.19;5053511;28;20040;-68
2021/01/07 08:42:46;;;;;;;11.40;7.03;;;;;;;2.60;77.75;99985.09;5053296;28;20036;-69
2021/01/07 08:45:12;;;;;;;13.20;7.43;;;;;;;2.86;78.11;100008.81;5018698;28;20401;-67
2021/01/07 08:47:38;;;;;;;17.33;7.28;;;;;;;2.88;77.66;100014.91;5035577;28;20029;-69
2021/01/07 08:50:05;;;;;;;11.90;7.07;;;;;;;2.98;77.29;100033.03;5035342;28;20045;-69
2021/01/07 08:52:46;;;;;;;10.57;6.68;;;;;;;3.06;76.30;100044.22;5053321;28;20039;-69
2021/01/07 08:55:11;;;;;;;11.23;6.78;;;;;;;3.03;77.35;100036.41;5053213;28;20037;-68
2021/01/07 08:57:37;;;;;;;11.50;7.10;;;;;;;2.66;76.95;99990.19;5053120;28;20136;-69
2021/01/07 09:00:15;;;;;;;11.57;6.75;;;;;;;2.86;76.85;100039.59;5053079;28;20033;-69
2021/01/07 09:02:40;;;;;;;11.05;6.72;;;;;;;2.87;77.21;100042.16;5052921;28;20576;-69
2021/01/07 09:05:06;;;;;;;14.82;6.88;;;;;;;2.91;77.54;100036.81;5018638;28;20036;-67
2021/01/07 09:07:31;;;;;;;14.25;7.15;;;;;;;3.07;77.31;100053.81;5052864;28;20032;-68
2021/01/07 09:09:57;;;;;;;11.75;6.75;;;;;;;3.00;77.33;100041.78;5052911;28;20117;-69
2021/01/07 09:12:33;;;;;;;9.82;4.40;;;;;;;2.88;76.31;100059.69;5052191;28;20082;-69
2021/01/07 09:15:10;;;;;;;8.73;5.13;;;;;;;2.95;75.45;100059.50;5034716;28;20102;-69
2021/01/07 09:17:52;;;;;;;9.77;5.63;;;;;;;3.08;75.56;100055.56;5053035;28;20029;-69
2021/01/07 09:20:31;;;;;;;9.25;5.45;;;;;;;3.12;75.43;100063.31;5052706;28;20573;-67
2021/01/07 09:23:08;;;;;;;11.75;5.82;;;;;;;2.99;74.37;100063.75;5053118;28;20033;-70
2021/01/07 09:25:34;;;;;;;9.52;5.20;;;;;;;2.76;76.39;100049.53;5035098;28;20481;-68
2021/01/07 09:28:01;;;;;;;9.98;4.68;;;;;;;2.82;74.65;100048.50;5034976;28;20090;-70
2021/01/07 09:30:27;;;;;;;8.57;5.00;;;;;;;2.87;74.63;100059.75;5052948;28;20025;-68
2021/01/07 09:32:53;;;;;;;10.07;4.75;;;;;;;3.01;75.03;100061.97;5057409;28;20052;-69
2021/01/07 09:35:19;;;;;;;8.50;5.00;;;;;;;3.06;74.03;100046.84;5072447;28;20036;-69
2021/01/07 09:37:44;;;;;;;9.48;5.07;;;;;;;3.02;73.94;100045.22;5072953;28;20040;-69
2021/01/07 09:40:11;;;;;;;7.45;4.00;;;;;;;3.22;73.05;100063.88;5072696;28;20086;-69
2021/01/07 09:42:36;;;;;;;9.75;5.28;;;;;;;3.20;73.34;100054.31;5073013;28;20037;-68
2021/01/07 09:45:06;;;;;;;7.63;4.75;;;;;;;3.15;75.30;100050.03;5072389;28;20036;-69
2021/01/07 09:47:32;;;;;;;9.35;5.22;;;;;;;3.24;74.76;100059.41;5072782;28;20036;-68
2021/01/07 09:49:58;;;;;;;8.82;5.10;;;;;;;3.17;75.30;100040.28;5072846;28;20362;-86
2021/01/07 09:52:24;;;;;;;9.75;4.47;;;;;;;3.23;73.42;100036.59;5071439;28;20119;-69
2021/01/07 09:54:50;;;;;;;5.55;3.58;;;;;;;3.12;73.55;100046.66;5072522;28;20087;-69
2021/01/07 09:57:15;;;;;;;9.15;5.28;;;;;;;2.91;74.54;100007.84;5071171;28;20040;-69
2021/01/07 09:59:41;;;;;;;10.15;5.32;;;;;;;3.32;73.61;100054.75;5072858;28;20523;-69
2021/01/07 10:02:08;;;;;;;9.40;5.30;;;;;;;3.00;74.18;100023.34;5072300;28;20033;-69
2021/01/07 10:04:34;;;;;;;8.55;5.15;;;;;;;3.21;74.75;100056.03;5072560;28;20028;-69
2021/01/07 10:07:00;;;;;;;10.55;5.38;;;;;;;3.28;74.71;100053.16;5072207;28;20103;-72
2021/01/07 10:09:25;;;;;;;10.07;5.38;;;;;;;3.07;74.06;100006.41;5072509;28;20037;-68
2021/01/07 10:11:53;;;;;;;9.55;5.55;;;;;;;3.49;73.31;100050.69;5072381;28;20036;-69
2021/01/07 10:14:19;;;;;;;9.38;5.45;;;;;;;3.40;73.57;100050.09;5072142;28;20119;-67
2021/01/07 10:16:52;;;;;;;9.43;5.32;;;;;;;3.37;73.50;100030.84;5054646;28;20077;-69
2021/01/07 10:19:20;;;;;;;9.07;5.90;;;;;;;3.27;73.58;100043.47;5072399;28;20036;-69
2021/01/07 10:22:03;;;;;;;11.65;5.97;;;;;;;3.32;74.64;100046.84;5072136;28;20143;-70
2021/01/07 10:24:30;;;;;;;10.85;6.13;;;;;;;3.29;73.92;100011.81;5074759;28;20039;-69
2021/01/07 10:27:04;;;;;;;11.02;5.55;;;;;;;3.45;73.90;100029.69;5075959;28;20064;-69
2021/01/07 10:29:34;;;;;;;9.32;5.90;;;;;;;3.44;72.57;100022.69;5075821;28;20103;-68
2021/01/07 10:32:17;;;;;;;10.77;5.43;;;;;;;3.67;72.35;100044.78;5074523;28;20053;-69
2021/01/07 10:34:45;;;;;;;9.67;5.37;;;;;;;3.59;73.48;100031.00;5075976;28;20028;-68
2021/01/07 10:37:12;;;;;;;8.65;5.18;;;;;;;3.69;71.66;100037.66;5075238;28;20036;-68
2021/01/07 10:39:40;;;;;;;10.43;5.80;;;;;;;3.76;71.98;100038.28;5075710;28;20358;-67
2021/01/07 10:42:10;;;;;;;10.27;5.30;;;;;;;3.77;72.16;100035.63;5057954;28;20055;-69
2021/01/07 10:44:36;;;;;;;8.90;5.25;;;;;;;3.49;72.99;99983.00;5074498;28;20178;-69
2021/01/07 10:47:04;;;;;;;8.48;5.10;;;;;;;3.66;73.59;100045.66;5075475;28;20071;-82
2021/01/07 10:49:31;;;;;;;8.77;4.75;;;;;;;3.64;72.70;100029.91;5075563;28;20060;-68
2021/01/07 10:52:10;;;;;;;10.43;5.30;;;;;;;4.01;70.41;100049.69;5075482;28;20366;-69
2021/01/07 10:55:04;;;;;;;12.20;5.57;;;;;;;3.95;71.59;100049.91;5075423;28;20055;-69
2021/01/07 10:57:51;;;;;;;8.32;4.90;;;;;;;3.96;70.99;100049.88;5075400;28;20393;-68
2021/01/07 11:00:28;;;;;;;9.20;5.07;;;;;;;3.92;71.26;100053.53;5075557;28;20028;-68
2021/01/07 11:02:59;;;;;;;9.07;5.40;;;;;;;3.74;71.20;100031.28;5075369;28;20036;-68
2021/01/07 11:05:52;;;;;;;8.35;4.88;;;;;;;3.92;70.88;100042.09;5074974;28;20440;-68
2021/01/07 11:08:34;;;;;;;9.47;4.70;;;;;;;3.92;70.93;100035.06;5066813;28;20466;-68
2021/01/07 11:11:07;;;;;;;8.65;4.20;;;;;;;3.94;69.73;100041.13;5075175;28;20258;-68
2021/01/07 11:13:37;;;;;;;;;;;;;;;3.95;70.24;100048.13;5075431;28;20024;-69
2021/01/07 11:16:04;;;;;;;8.32;4.60;;;;;;;3.98;70.17;100041.91;5073616;28;20031;-69
2021/01/07 11:18:37;;;;;;;7.03;4.55;;;;;;;3.85;69.41;100049.38;5073779;28;20371;-69
2021/01/07 11:21:04;;;;;;;8.63;4.43;;;;;;;3.77;69.58;100030.34;5073624;28;20032;-69
2021/01/07 11:23:31;;;;;;;8.68;4.80;;;;;;;3.76;70.93;100035.66;5074659;28;20031;-68
2021/01/07 11:25:57;;;;;;;7.15;4.40;;;;;;;3.87;68.78;100034.38;5073673;28;20502;-68
2021/01/07 11:28:23;;;;;;;8.07;4.20;;;;;;;3.98;70.05;100050.69;5074369;28;20113;-68
2021/01/07 11:30:49;;;;;;;8.90;4.22;;;;;;;3.96;68.67;100044.59;5074738;28;20040;-69
2021/01/07 11:33:16;;;;;;;9.68;4.90;;;;;;;3.76;68.14;100023.31;5058561;28;20057;-69
2021/01/07 11:35:46;;;;;;;7.28;4.60;;;;;;;3.72;69.62;100033.13;5035660;28;20033;-68
2021/01/07 11:38:23;;;;;;;9.65;5.72;;;;;;;3.86;70.31;100051.13;5036595;28;20021;-69